Impact, Texas
Current Conditions -  °F | °C
As of 5:58 AM on Monday 22 Dec 2014 (Local Time) from KDYS Reporting Station
Clear Clear  
Wind Chill: 57°   Ceiling: Unl
Heat Index: 57°   Visibility: 10mi
Dew Point: 32°   Wind: 13mph
Humidity: 39%   Direction: 260°W
Pressure: 29.59"   Gusts: NA
Location:  32.4875°N, 99.8071°W
Report Text: KDYS 221158Z AUTO 26011KT 10SM CLR 14/00 A2959 RMK AO2 SLP002 T01410001 10141 20093 56005 $
Loading
Personal Weather Stations






























Interactive Weather Map New forecast layout! Learn more

10-Day Weather Forecast

Advertisements
Track Severe Weather on mobile